sensor_id;sensor_type;location;lat;lon;timestamp;temperature;humidity
23562;DHT22;11959;49.418;8.728;2024-03-17T00:01:45;7.60;99.90
23562;DHT22;11959;49.418;8.728;2024-03-17T00:04:11;7.60;99.90
23562;DHT22;11959;49.418;8.728;2024-03-17T00:06:37;7.50;99.90
23562;DHT22;11959;49.418;8.728;2024-03-17T00:09:02;7.50;99.90
23562;DHT22;11959;49.418;8.728;2024-03-17T00:11:32;7.40;99.90
23562;DHT22;11959;49.418;8.728;2024-03-17T00:14:01;7.40;99.90
23562;DHT22;11959;49.418;8.728;2024-03-17T00:16:26;7.40;99.90
23562;DHT22;11959;49.418;8.728;2024-03-17T00:18:53;7.30;99.90
23562;DHT22;11959;49.418;8.728;2024-03-17T00:21:18;7.30;99.90
23562;DHT22;11959;49.418;8.728;2024-03-17T00:23:48;7.30;99.90
23562;DHT22;11959;49.418;8.728;2024-03-17T00:26:17;7.30;99.90
23562;DHT22;11959;49.418;8.728;2024-03-17T00:28:44;7.30;99.90
23562;DHT22;11959;49.418;8.728;2024-03-17T00:31:13;7.30;99.90
23562;DHT22;11959;49.418;8.728;2024-03-17T00:33:40;7.30;99.90
23562;DHT22;11959;49.418;8.728;2024-03-17T00:36:06;7.30;99.90
23562;DHT22;11959;49.418;8.728;2024-03-17T00:38:32;7.30;99.90
23562;DHT22;11959;49.418;8.728;2024-03-17T00:40:58;7.30;99.90
23562;DHT22;11959;49.418;8.728;2024-03-17T00:43:24;7.30;99.90
23562;DHT22;11959;49.418;8.728;2024-03-17T00:45:53;7.30;99.90
23562;DHT22;11959;49.418;8.728;2024-03-17T00:48:19;7.30;99.90
23562;DHT22;11959;49.418;8.728;2024-03-17T00:50:45;7.20;99.90
23562;DHT22;11959;49.418;8.728;2024-03-17T00:53:11;7.30;99.90
23562;DHT22;11959;49.418;8.728;2024-03-17T00:55:37;7.30;99.90
23562;DHT22;11959;49.418;8.728;2024-03-17T00:58:03;7.20;99.90
23562;DHT22;11959;49.418;8.728;2024-03-17T01:00:29;7.10;99.90
23562;DHT22;11959;49.418;8.728;2024-03-17T01:02:55;7.10;99.90
23562;DHT22;11959;49.418;8.728;2024-03-17T01:05:21;7.10;99.90
23562;DHT22;11959;49.418;8.728;2024-03-17T01:07:47;7.10;99.90
23562;DHT22;11959;49.418;8.728;2024-03-17T01:10:14;7.10;99.90
23562;DHT22;11959;49.418;8.728;2024-03-17T01:12:39;7.00;99.90
23562;DHT22;11959;49.418;8.728;2024-03-17T01:15:06;7.00;99.90
23562;DHT22;11959;49.418;8.728;2024-03-17T01:17:31;7.00;99.90
23562;DHT22;11959;49.418;8.728;2024-03-17T01:19:58;6.90;99.90
23562;DHT22;11959;49.418;8.728;2024-03-17T01:22:24;6.90;99.90
23562;DHT22;11959;49.418;8.728;2024-03-17T01:24:50;6.90;99.90
23562;DHT22;11959;49.418;8.728;2024-03-17T01:27:15;6.90;99.90
23562;DHT22;11959;49.418;8.728;2024-03-17T01:29:42;6.80;99.90
23562;DHT22;11959;49.418;8.728;2024-03-17T01:32:09;6.80;99.90
23562;DHT22;11959;49.418;8.728;2024-03-17T01:34:39;6.80;99.90
23562;DHT22;11959;49.418;8.728;2024-03-17T01:37:04;6.80;99.90
23562;DHT22;11959;49.418;8.728;2024-03-17T01:39:30;6.70;99.90
23562;DHT22;11959;49.418;8.728;2024-03-17T01:41:58;6.70;99.90
23562;DHT22;11959;49.418;8.728;2024-03-17T01:44:28;6.70;99.90
23562;DHT22;11959;49.418;8.728;2024-03-17T01:46:57;6.70;99.90
23562;DHT22;11959;49.418;8.728;2024-03-17T01:49:25;6.80;99.90
23562;DHT22;11959;49.418;8.728;2024-03-17T01:51:52;6.70;99.90
23562;DHT22;11959;49.418;8.728;2024-03-17T01:54:18;6.70;99.90
23562;DHT22;11959;49.418;8.728;2024-03-17T01:56:45;6.60;99.90
23562;DHT22;11959;49.418;8.728;2024-03-17T01:59:11;6.60;99.90
23562;DHT22;11959;49.418;8.728;2024-03-17T02:01:37;6.60;99.90
23562;DHT22;11959;49.418;8.728;2024-03-17T02:04:04;6.50;99.90
23562;DHT22;11959;49.418;8.728;2024-03-17T02:06:30;6.40;99.90
23562;DHT22;11959;49.418;8.728;2024-03-17T02:08:56;6.40;99.90
23562;DHT22;11959;49.418;8.728;2024-03-17T02:11:27;6.40;99.90
23562;DHT22;11959;49.418;8.728;2024-03-17T02:13:53;6.40;99.90
23562;DHT22;11959;49.418;8.728;2024-03-17T02:16:19;6.40;99.90
23562;DHT22;11959;49.418;8.728;2024-03-17T02:18:45;6.50;99.90
23562;DHT22;11959;49.418;8.728;2024-03-17T02:21:12;6.40;99.90
23562;DHT22;11959;49.418;8.728;2024-03-17T02:23:38;6.40;99.90
23562;DHT22;11959;49.418;8.728;2024-03-17T02:26:04;6.40;99.90
23562;DHT22;11959;49.418;8.728;2024-03-17T02:28:38;6.50;99.90
23562;DHT22;11959;49.418;8.728;2024-03-17T02:31:06;6.50;99.90
23562;DHT22;11959;49.418;8.728;2024-03-17T02:33:32;6.40;99.90
23562;DHT22;11959;49.418;8.728;2024-03-17T02:35:58;6.50;99.90
23562;DHT22;11959;49.418;8.728;2024-03-17T02:38:25;6.40;99.90
23562;DHT22;11959;49.418;8.728;2024-03-17T02:41:09;6.30;99.90
23562;DHT22;11959;49.418;8.728;2024-03-17T02:43:35;6.40;99.90
23562;DHT22;11959;49.418;8.728;2024-03-17T02:46:02;6.30;99.90
23562;DHT22;11959;49.418;8.728;2024-03-17T02:48:30;6.30;99.90
23562;DHT22;11959;49.418;8.728;2024-03-17T02:50:56;6.40;99.90
23562;DHT22;11959;49.418;8.728;2024-03-17T02:53:22;6.30;99.90
23562;DHT22;11959;49.418;8.728;2024-03-17T02:55:47;6.30;99.90
23562;DHT22;11959;49.418;8.728;2024-03-17T02:58:13;6.30;99.90
23562;DHT22;11959;49.418;8.728;2024-03-17T03:00:39;6.30;99.90
23562;DHT22;11959;49.418;8.728;2024-03-17T03:03:05;6.20;99.90
23562;DHT22;11959;49.418;8.728;2024-03-17T03:05:31;6.20;99.90
23562;DHT22;11959;49.418;8.728;2024-03-17T03:07:56;6.20;99.90
23562;DHT22;11959;49.418;8.728;2024-03-17T03:10:23;6.10;99.90
23562;DHT22;11959;49.418;8.728;2024-03-17T03:12:48;6.20;99.90
23562;DHT22;11959;49.418;8.728;2024-03-17T03:15:14;6.10;99.90
23562;DHT22;11959;49.418;8.728;2024-03-17T03:17:40;6.10;99.90
23562;DHT22;11959;49.418;8.728;2024-03-17T03:20:05;6.10;99.90
23562;DHT22;11959;49.418;8.728;2024-03-17T03:22:31;6.20;99.90
23562;DHT22;11959;49.418;8.728;2024-03-17T03:24:57;6.20;99.90
23562;DHT22;11959;49.418;8.728;2024-03-17T03:27:23;6.10;99.90
23562;DHT22;11959;49.418;8.728;2024-03-17T03:29:50;6.10;99.90
23562;DHT22;11959;49.418;8.728;2024-03-17T03:32:15;6.00;99.90
23562;DHT22;11959;49.418;8.728;2024-03-17T03:34:43;6.00;99.90
23562;DHT22;11959;49.418;8.728;2024-03-17T03:37:08;6.00;99.90
23562;DHT22;11959;49.418;8.728;2024-03-17T03:39:36;6.00;99.90
23562;DHT22;11959;49.418;8.728;2024-03-17T03:42:02;6.00;99.90
23562;DHT22;11959;49.418;8.728;2024-03-17T03:44:28;6.10;99.90
23562;DHT22;11959;49.418;8.728;2024-03-17T03:46:54;6.10;99.90
23562;DHT22;11959;49.418;8.728;2024-03-17T03:49:24;6.10;99.90
23562;DHT22;11959;49.418;8.728;2024-03-17T03:51:50;6.10;99.90
23562;DHT22;11959;49.418;8.728;2024-03-17T03:54:16;6.10;99.90
23562;DHT22;11959;49.418;8.728;2024-03-17T03:56:41;6.10;99.90
23562;DHT22;11959;49.418;8.728;2024-03-17T03:59:07;6.10;99.90
23562;DHT22;11959;49.418;8.728;2024-03-17T04:01:33;6.10;99.90
23562;DHT22;11959;49.418;8.728;2024-03-17T04:03:58;6.10;99.90
23562;DHT22;11959;49.418;8.728;2024-03-17T04:06:24;6.10;99.90
23562;DHT22;11959;49.418;8.728;2024-03-17T04:08:50;6.10;99.90
23562;DHT22;11959;49.418;8.728;2024-03-17T04:11:15;6.10;99.90
23562;DHT22;11959;49.418;8.728;2024-03-17T04:13:41;6.20;99.90
23562;DHT22;11959;49.418;8.728;2024-03-17T04:16:07;6.20;99.90
23562;DHT22;11959;49.418;8.728;2024-03-17T04:18:33;6.20;99.90
23562;DHT22;11959;49.418;8.728;2024-03-17T04:21:04;6.10;99.90
23562;DHT22;11959;49.418;8.728;2024-03-17T04:23:30;6.10;99.90
23562;DHT22;11959;49.418;8.728;2024-03-17T04:25:58;6.00;99.90
23562;DHT22;11959;49.418;8.728;2024-03-17T04:28:23;5.90;99.90
23562;DHT22;11959;49.418;8.728;2024-03-17T04:30:49;5.90;99.90
23562;DHT22;11959;49.418;8.728;2024-03-17T04:33:15;5.80;99.90
23562;DHT22;11959;49.418;8.728;2024-03-17T04:35:42;5.80;99.90
23562;DHT22;11959;49.418;8.728;2024-03-17T04:38:08;5.80;99.90
23562;DHT22;11959;49.418;8.728;2024-03-17T04:40:43;5.70;99.90
23562;DHT22;11959;49.418;8.728;2024-03-17T04:43:09;5.70;99.90
23562;DHT22;11959;49.418;8.728;2024-03-17T04:45:35;5.70;99.90
23562;DHT22;11959;49.418;8.728;2024-03-17T04:48:01;5.70;99.90
23562;DHT22;11959;49.418;8.728;2024-03-17T04:50:27;5.70;99.90
23562;DHT22;11959;49.418;8.728;2024-03-17T04:52:58;5.70;99.90
23562;DHT22;11959;49.418;8.728;2024-03-17T04:55:23;5.70;99.90
23562;DHT22;11959;49.418;8.728;2024-03-17T04:57:49;5.70;99.90
23562;DHT22;11959;49.418;8.728;2024-03-17T05:00:14;5.60;99.90
23562;DHT22;11959;49.418;8.728;2024-03-17T05:02:43;5.60;99.90
23562;DHT22;11959;49.418;8.728;2024-03-17T05:05:09;5.50;99.90
23562;DHT22;11959;49.418;8.728;2024-03-17T05:07:36;5.50;99.90
23562;DHT22;11959;49.418;8.728;2024-03-17T05:10:02;5.50;99.90
23562;DHT22;11959;49.418;8.728;2024-03-17T05:12:28;5.50;99.90
23562;DHT22;11959;49.418;8.728;2024-03-17T05:14:53;5.50;99.90
23562;DHT22;11959;49.418;8.728;2024-03-17T05:17:19;5.60;99.90
23562;DHT22;11959;49.418;8.728;2024-03-17T05:19:45;5.60;99.90
23562;DHT22;11959;49.418;8.728;2024-03-17T05:22:10;5.70;99.90
23562;DHT22;11959;49.418;8.728;2024-03-17T05:24:36;5.70;99.90
23562;DHT22;11959;49.418;8.728;2024-03-17T05:27:02;5.70;99.90
23562;DHT22;11959;49.418;8.728;2024-03-17T05:29:30;5.60;99.90
23562;DHT22;11959;49.418;8.728;2024-03-17T05:31:56;5.70;99.90
23562;DHT22;11959;49.418;8.728;2024-03-17T05:34:22;5.70;99.90
23562;DHT22;11959;49.418;8.728;2024-03-17T05:36:50;5.80;99.90
23562;DHT22;11959;49.418;8.728;2024-03-17T05:39:16;5.80;99.90
23562;DHT22;11959;49.418;8.728;2024-03-17T05:41:42;5.90;99.90
23562;DHT22;11959;49.418;8.728;2024-03-17T05:44:09;5.90;99.90
23562;DHT22;11959;49.418;8.728;2024-03-17T05:46:34;5.90;99.90
23562;DHT22;11959;49.418;8.728;2024-03-17T05:49:00;5.90;99.90
23562;DHT22;11959;49.418;8.728;2024-03-17T05:51:26;5.90;99.90
23562;DHT22;11959;49.418;8.728;2024-03-17T05:53:53;5.90;99.90
23562;DHT22;11959;49.418;8.728;2024-03-17T05:56:21;5.90;99.90
23562;DHT22;11959;49.418;8.728;2024-03-17T05:58:48;5.90;99.90
23562;DHT22;11959;49.418;8.728;2024-03-17T06:01:14;5.90;99.90
23562;DHT22;11959;49.418;8.728;2024-03-17T06:03:39;5.90;99.90
23562;DHT22;11959;49.418;8.728;2024-03-17T06:06:07;6.00;99.90
23562;DHT22;11959;49.418;8.728;2024-03-17T06:08:37;5.90;99.90
23562;DHT22;11959;49.418;8.728;2024-03-17T06:11:03;5.90;99.90
23562;DHT22;11959;49.418;8.728;2024-03-17T06:13:30;5.90;99.90
23562;DHT22;11959;49.418;8.728;2024-03-17T06:15:55;6.00;99.90
23562;DHT22;11959;49.418;8.728;2024-03-17T06:18:26;6.10;99.90
23562;DHT22;11959;49.418;8.728;2024-03-17T06:20:52;6.20;99.90
23562;DHT22;11959;49.418;8.728;2024-03-17T06:23:18;6.20;99.90
23562;DHT22;11959;49.418;8.728;2024-03-17T06:25:45;6.20;99.90
23562;DHT22;11959;49.418;8.728;2024-03-17T06:28:14;6.20;99.90
23562;DHT22;11959;49.418;8.728;2024-03-17T06:30:44;6.10;99.90
23562;DHT22;11959;49.418;8.728;2024-03-17T06:33:15;6.20;99.90
23562;DHT22;11959;49.418;8.728;2024-03-17T06:35:41;6.20;99.90
23562;DHT22;11959;49.418;8.728;2024-03-17T06:38:07;6.20;99.90
23562;DHT22;11959;49.418;8.728;2024-03-17T06:40:39;6.20;99.90
23562;DHT22;11959;49.418;8.728;2024-03-17T06:43:05;6.20;99.90
23562;DHT22;11959;49.418;8.728;2024-03-17T06:45:31;6.20;99.90
23562;DHT22;11959;49.418;8.728;2024-03-17T06:47:57;6.30;99.90
23562;DHT22;11959;49.418;8.728;2024-03-17T06:50:23;6.30;99.90
23562;DHT22;11959;49.418;8.728;2024-03-17T06:52:49;6.30;99.90
23562;DHT22;11959;49.418;8.728;2024-03-17T06:55:15;6.40;99.90
23562;DHT22;11959;49.418;8.728;2024-03-17T06:57:44;6.40;99.90
23562;DHT22;11959;49.418;8.728;2024-03-17T07:00:13;6.40;99.90
23562;DHT22;11959;49.418;8.728;2024-03-17T07:02:49;6.60;99.90
23562;DHT22;11959;49.418;8.728;2024-03-17T07:05:15;6.70;99.90
23562;DHT22;11959;49.418;8.728;2024-03-17T07:07:41;6.80;99.90
23562;DHT22;11959;49.418;8.728;2024-03-17T07:10:07;6.80;99.90
23562;DHT22;11959;49.418;8.728;2024-03-17T07:12:34;6.80;99.90
23562;DHT22;11959;49.418;8.728;2024-03-17T07:15:00;6.80;99.90
23562;DHT22;11959;49.418;8.728;2024-03-17T07:17:25;6.80;99.90
23562;DHT22;11959;49.418;8.728;2024-03-17T07:19:51;6.90;99.90
23562;DHT22;11959;49.418;8.728;2024-03-17T07:22:16;6.80;99.90
23562;DHT22;11959;49.418;8.728;2024-03-17T07:24:43;6.80;99.90
23562;DHT22;11959;49.418;8.728;2024-03-17T07:27:10;6.90;99.90
23562;DHT22;11959;49.418;8.728;2024-03-17T07:29:39;6.90;99.90
23562;DHT22;11959;49.418;8.728;2024-03-17T07:32:05;6.90;99.90
23562;DHT22;11959;49.418;8.728;2024-03-17T07:34:33;7.00;99.90
23562;DHT22;11959;49.418;8.728;2024-03-17T07:37:00;7.10;99.90
23562;DHT22;11959;49.418;8.728;2024-03-17T07:39:31;7.20;99.90
23562;DHT22;11959;49.418;8.728;2024-03-17T07:42:01;7.30;99.90
23562;DHT22;11959;49.418;8.728;2024-03-17T07:44:28;7.40;99.90
23562;DHT22;11959;49.418;8.728;2024-03-17T07:46:57;7.50;99.90
23562;DHT22;11959;49.418;8.728;2024-03-17T07:49:23;7.60;99.90
23562;DHT22;11959;49.418;8.728;2024-03-17T07:51:48;7.70;99.90
23562;DHT22;11959;49.418;8.728;2024-03-17T07:54:14;7.80;99.90
23562;DHT22;11959;49.418;8.728;2024-03-17T07:56:40;7.80;99.90
23562;DHT22;11959;49.418;8.728;2024-03-17T07:59:05;7.90;99.90
23562;DHT22;11959;49.418;8.728;2024-03-17T08:01:37;7.90;99.90
23562;DHT22;11959;49.418;8.728;2024-03-17T08:04:03;8.00;99.90
23562;DHT22;11959;49.418;8.728;2024-03-17T08:06:29;8.00;99.90
23562;DHT22;11959;49.418;8.728;2024-03-17T08:08:55;8.00;99.90
23562;DHT22;11959;49.418;8.728;2024-03-17T08:11:22;8.10;99.90
23562;DHT22;11959;49.418;8.728;2024-03-17T08:13:48;8.20;99.90
23562;DHT22;11959;49.418;8.728;2024-03-17T08:16:14;8.20;99.90
23562;DHT22;11959;49.418;8.728;2024-03-17T08:18:40;8.30;99.90
23562;DHT22;11959;49.418;8.728;2024-03-17T08:21:08;8.40;99.90
23562;DHT22;11959;49.418;8.728;2024-03-17T08:23:36;8.40;99.90
23562;DHT22;11959;49.418;8.728;2024-03-17T08:26:07;8.50;99.90
23562;DHT22;11959;49.418;8.728;2024-03-17T08:28:32;8.60;99.90
23562;DHT22;11959;49.418;8.728;2024-03-17T08:31:00;8.70;99.90
23562;DHT22;11959;49.418;8.728;2024-03-17T08:33:26;8.80;99.90
23562;DHT22;11959;49.418;8.728;2024-03-17T08:36:00;8.90;99.90
23562;DHT22;11959;49.418;8.728;2024-03-17T08:38:28;9.00;99.90
23562;DHT22;11959;49.418;8.728;2024-03-17T08:40:55;9.20;99.90
23562;DHT22;11959;49.418;8.728;2024-03-17T08:43:21;9.30;99.90
23562;DHT22;11959;49.418;8.728;2024-03-17T08:45:58;9.40;99.90
23562;DHT22;11959;49.418;8.728;2024-03-17T08:48:26;9.50;99.90
23562;DHT22;11959;49.418;8.728;2024-03-17T08:50:53;9.60;99.90
23562;DHT22;11959;49.418;8.728;2024-03-17T08:53:19;9.70;99.90
23562;DHT22;11959;49.418;8.728;2024-03-17T08:55:45;9.80;99.90
23562;DHT22;11959;49.418;8.728;2024-03-17T08:58:11;9.80;99.90
23562;DHT22;11959;49.418;8.728;2024-03-17T09:00:36;9.90;99.90
23562;DHT22;11959;49.418;8.728;2024-03-17T09:03:03;10.00;99.90
23562;DHT22;11959;49.418;8.728;2024-03-17T09:05:29;10.10;99.90
23562;DHT22;11959;49.418;8.728;2024-03-17T09:07:54;10.10;99.90
23562;DHT22;11959;49.418;8.728;2024-03-17T09:10:21;10.30;99.90
23562;DHT22;11959;49.418;8.728;2024-03-17T09:12:46;10.40;99.90
23562;DHT22;11959;49.418;8.728;2024-03-17T09:15:13;10.50;99.90
23562;DHT22;11959;49.418;8.728;2024-03-17T09:17:40;10.60;99.90
23562;DHT22;11959;49.418;8.728;2024-03-17T09:20:06;10.70;99.90
23562;DHT22;11959;49.418;8.728;2024-03-17T09:22:40;10.70;99.90
23562;DHT22;11959;49.418;8.728;2024-03-17T09:25:07;10.90;99.90
23562;DHT22;11959;49.418;8.728;2024-03-17T09:27:33;11.00;99.90
23562;DHT22;11959;49.418;8.728;2024-03-17T09:29:59;11.00;99.90
23562;DHT22;11959;49.418;8.728;2024-03-17T09:32:25;11.10;99.90
23562;DHT22;11959;49.418;8.728;2024-03-17T09:34:51;11.20;99.90
23562;DHT22;11959;49.418;8.728;2024-03-17T09:37:16;11.30;99.90
23562;DHT22;11959;49.418;8.728;2024-03-17T09:39:42;11.30;99.90
23562;DHT22;11959;49.418;8.728;2024-03-17T09:42:17;11.40;99.90
23562;DHT22;11959;49.418;8.728;2024-03-17T09:44:46;11.50;99.90
23562;DHT22;11959;49.418;8.728;2024-03-17T09:47:18;11.50;99.90
23562;DHT22;11959;49.418;8.728;2024-03-17T09:49:46;11.60;99.90
23562;DHT22;11959;49.418;8.728;2024-03-17T09:52:20;11.60;99.90
23562;DHT22;11959;49.418;8.728;2024-03-17T09:54:46;11.60;99.90
23562;DHT22;11959;49.418;8.728;2024-03-17T09:57:17;11.70;99.90
23562;DHT22;11959;49.418;8.728;2024-03-17T09:59:43;11.70;99.90
23562;DHT22;11959;49.418;8.728;2024-03-17T10:02:17;11.80;99.90
23562;DHT22;11959;49.418;8.728;2024-03-17T10:04:43;11.80;99.90
23562;DHT22;11959;49.418;8.728;2024-03-17T10:07:09;11.90;99.90
23562;DHT22;11959;49.418;8.728;2024-03-17T10:09:35;11.90;99.90
23562;DHT22;11959;49.418;8.728;2024-03-17T10:12:02;12.00;99.90
23562;DHT22;11959;49.418;8.728;2024-03-17T10:14:27;12.10;99.90
23562;DHT22;11959;49.418;8.728;2024-03-17T10:16:53;12.10;99.90
23562;DHT22;11959;49.418;8.728;2024-03-17T10:19:26;12.20;99.90
23562;DHT22;11959;49.418;8.728;2024-03-17T10:22:00;12.30;99.90
23562;DHT22;11959;49.418;8.728;2024-03-17T10:24:27;12.30;99.90
23562;DHT22;11959;49.418;8.728;2024-03-17T10:27:01;12.30;99.90
23562;DHT22;11959;49.418;8.728;2024-03-17T10:29:33;12.40;99.90
23562;DHT22;11959;49.418;8.728;2024-03-17T10:32:04;12.40;99.90
23562;DHT22;11959;49.418;8.728;2024-03-17T10:34:31;12.40;99.90
23562;DHT22;11959;49.418;8.728;2024-03-17T10:37:17;12.50;99.90
23562;DHT22;11959;49.418;8.728;2024-03-17T10:39:50;12.70;99.90
23562;DHT22;11959;49.418;8.728;2024-03-17T10:42:24;12.80;99.90
23562;DHT22;11959;49.418;8.728;2024-03-17T10:44:50;12.90;99.90
23562;DHT22;11959;49.418;8.728;2024-03-17T10:47:23;13.00;99.90
23562;DHT22;11959;49.418;8.728;2024-03-17T10:49:53;13.00;99.90
23562;DHT22;11959;49.418;8.728;2024-03-17T10:52:21;13.20;99.90
23562;DHT22;11959;49.418;8.728;2024-03-17T10:54:52;13.20;99.90
23562;DHT22;11959;49.418;8.728;2024-03-17T11:00:04;13.30;99.90
23562;DHT22;11959;49.418;8.728;2024-03-17T11:02:32;13.30;99.90
23562;DHT22;11959;49.418;8.728;2024-03-17T11:05:05;13.40;99.90
23562;DHT22;11959;49.418;8.728;2024-03-17T11:07:32;13.40;99.90
23562;DHT22;11959;49.418;8.728;2024-03-17T11:09:59;13.30;99.90
23562;DHT22;11959;49.418;8.728;2024-03-17T11:12:41;13.30;99.90
23562;DHT22;11959;49.418;8.728;2024-03-17T11:17:48;13.30;99.90
23562;DHT22;11959;49.418;8.728;2024-03-17T11:22:45;13.30;99.90
23562;DHT22;11959;49.418;8.728;2024-03-17T11:28:08;13.40;99.90
23562;DHT22;11959;49.418;8.728;2024-03-17T11:30:49;13.50;99.90
23562;DHT22;11959;49.418;8.728;2024-03-17T11:38:59;13.50;99.90
23562;DHT22;11959;49.418;8.728;2024-03-17T11:46:51;13.60;99.90
23562;DHT22;11959;49.418;8.728;2024-03-17T11:49:31;13.50;99.90
23562;DHT22;11959;49.418;8.728;2024-03-17T11:51:59;13.60;99.90
23562;DHT22;11959;49.418;8.728;2024-03-17T11:54:28;13.60;99.90
23562;DHT22;11959;49.418;8.728;2024-03-17T11:56:56;13.70;99.90
23562;DHT22;11959;49.418;8.728;2024-03-17T11:59:22;13.70;99.90
23562;DHT22;11959;49.418;8.728;2024-03-17T12:01:49;13.80;99.90
23562;DHT22;11959;49.418;8.728;2024-03-17T12:04:17;13.70;99.90
23562;DHT22;11959;49.418;8.728;2024-03-17T12:06:51;13.70;99.90
23562;DHT22;11959;49.418;8.728;2024-03-17T12:09:26;13.80;99.90
23562;DHT22;11959;49.418;8.728;2024-03-17T12:12:05;13.80;99.90
23562;DHT22;11959;49.418;8.728;2024-03-17T12:14:32;13.80;99.90
23562;DHT22;11959;49.418;8.728;2024-03-17T12:17:08;13.80;99.90
23562;DHT22;11959;49.418;8.728;2024-03-17T12:19:34;13.80;99.90
23562;DHT22;11959;49.418;8.728;2024-03-17T12:22:01;13.70;99.90
23562;DHT22;11959;49.418;8.728;2024-03-17T12:24:29;13.80;99.90
23562;DHT22;11959;49.418;8.728;2024-03-17T12:26:56;13.80;99.90
23562;DHT22;11959;49.418;8.728;2024-03-17T12:29:36;13.90;99.90
23562;DHT22;11959;49.418;8.728;2024-03-17T12:32:04;13.90;99.90
23562;DHT22;11959;49.418;8.728;2024-03-17T12:34:33;13.90;99.90
23562;DHT22;11959;49.418;8.728;2024-03-17T12:37:02;14.00;99.90
23562;DHT22;11959;49.418;8.728;2024-03-17T12:39:30;14.00;99.90
23562;DHT22;11959;49.418;8.728;2024-03-17T12:42:16;14.00;99.90
23562;DHT22;11959;49.418;8.728;2024-03-17T12:47:24;14.00;99.90
23562;DHT22;11959;49.418;8.728;2024-03-17T12:50:00;13.90;99.90
23562;DHT22;11959;49.418;8.728;2024-03-17T12:52:27;13.90;99.90
23562;DHT22;11959;49.418;8.728;2024-03-17T12:55:06;13.90;99.90
23562;DHT22;11959;49.418;8.728;2024-03-17T12:58:12;14.00;99.90
23562;DHT22;11959;49.418;8.728;2024-03-17T13:01:02;13.90;99.90
23562;DHT22;11959;49.418;8.728;2024-03-17T13:03:36;13.90;99.90
23562;DHT22;11959;49.418;8.728;2024-03-17T13:06:03;13.90;99.90
23562;DHT22;11959;49.418;8.728;2024-03-17T13:08:31;13.90;99.90
23562;DHT22;11959;49.418;8.728;2024-03-17T13:10:58;13.90;99.90
23562;DHT22;11959;49.418;8.728;2024-03-17T13:13:24;14.00;99.90
23562;DHT22;11959;49.418;8.728;2024-03-17T13:15:49;14.00;99.90
23562;DHT22;11959;49.418;8.728;2024-03-17T13:18:17;14.00;99.90
23562;DHT22;11959;49.418;8.728;2024-03-17T13:20:47;14.00;99.90
23562;DHT22;11959;49.418;8.728;2024-03-17T13:23:15;14.10;99.90
23562;DHT22;11959;49.418;8.728;2024-03-17T13:25:41;14.00;99.90
23562;DHT22;11959;49.418;8.728;2024-03-17T13:28:09;14.00;99.90
23562;DHT22;11959;49.418;8.728;2024-03-17T13:30:35;14.00;99.90
23562;DHT22;11959;49.418;8.728;2024-03-17T13:33:05;14.00;99.90
23562;DHT22;11959;49.418;8.728;2024-03-17T13:35:34;14.00;99.90
23562;DHT22;11959;49.418;8.728;2024-03-17T13:38:03;14.00;99.90
23562;DHT22;11959;49.418;8.728;2024-03-17T13:40:29;14.00;99.90
23562;DHT22;11959;49.418;8.728;2024-03-17T13:42:56;14.10;99.90
23562;DHT22;11959;49.418;8.728;2024-03-17T13:45:24;14.10;99.90
23562;DHT22;11959;49.418;8.728;2024-03-17T13:48:01;14.10;99.90
23562;DHT22;11959;49.418;8.728;2024-03-17T13:50:27;14.10;99.90
23562;DHT22;11959;49.418;8.728;2024-03-17T13:52:53;14.20;99.90
23562;DHT22;11959;49.418;8.728;2024-03-17T13:55:21;14.10;99.90
23562;DHT22;11959;49.418;8.728;2024-03-17T13:57:55;14.20;99.90
23562;DHT22;11959;49.418;8.728;2024-03-17T14:00:24;14.10;99.90
23562;DHT22;11959;49.418;8.728;2024-03-17T14:02:51;14.10;99.90
23562;DHT22;11959;49.418;8.728;2024-03-17T14:05:20;14.10;99.90
23562;DHT22;11959;49.418;8.728;2024-03-17T14:07:46;14.10;99.90
23562;DHT22;11959;49.418;8.728;2024-03-17T14:10:14;14.20;99.90
23562;DHT22;11959;49.418;8.728;2024-03-17T14:12:39;14.20;99.90
23562;DHT22;11959;49.418;8.728;2024-03-17T14:15:06;14.20;99.90
23562;DHT22;11959;49.418;8.728;2024-03-17T14:17:33;14.20;99.90
23562;DHT22;11959;49.418;8.728;2024-03-17T14:19:59;14.20;99.90
23562;DHT22;11959;49.418;8.728;2024-03-17T14:22:25;14.30;99.90
23562;DHT22;11959;49.418;8.728;2024-03-17T14:24:51;14.30;99.90
23562;DHT22;11959;49.418;8.728;2024-03-17T14:27:17;14.30;99.90
23562;DHT22;11959;49.418;8.728;2024-03-17T14:29:46;14.30;99.90
23562;DHT22;11959;49.418;8.728;2024-03-17T14:32:11;14.30;99.90
23562;DHT22;11959;49.418;8.728;2024-03-17T14:34:39;14.30;99.90
23562;DHT22;11959;49.418;8.728;2024-03-17T14:37:05;14.30;99.90
23562;DHT22;11959;49.418;8.728;2024-03-17T14:39:31;14.30;99.90
23562;DHT22;11959;49.418;8.728;2024-03-17T14:41:56;14.30;99.90
23562;DHT22;11959;49.418;8.728;2024-03-17T14:44:23;14.30;99.90
23562;DHT22;11959;49.418;8.728;2024-03-17T14:46:49;14.30;99.90
23562;DHT22;11959;49.418;8.728;2024-03-17T14:49:19;14.40;99.90
23562;DHT22;11959;49.418;8.728;2024-03-17T14:51:45;14.40;99.90
23562;DHT22;11959;49.418;8.728;2024-03-17T14:54:10;14.40;99.90
23562;DHT22;11959;49.418;8.728;2024-03-17T14:56:37;14.40;99.90
23562;DHT22;11959;49.418;8.728;2024-03-17T14:59:04;14.40;99.90
23562;DHT22;11959;49.418;8.728;2024-03-17T15:01:32;14.40;99.90
23562;DHT22;11959;49.418;8.728;2024-03-17T15:03:57;14.40;99.90
23562;DHT22;11959;49.418;8.728;2024-03-17T15:06:23;14.30;99.90
23562;DHT22;11959;49.418;8.728;2024-03-17T15:08:50;14.30;99.90
23562;DHT22;11959;49.418;8.728;2024-03-17T15:11:16;14.30;99.90
23562;DHT22;11959;49.418;8.728;2024-03-17T15:13:43;14.40;99.90
23562;DHT22;11959;49.418;8.728;2024-03-17T15:16:09;14.50;99.90
23562;DHT22;11959;49.418;8.728;2024-03-17T15:18:35;14.50;99.90
23562;DHT22;11959;49.418;8.728;2024-03-17T15:21:02;14.50;99.90
23562;DHT22;11959;49.418;8.728;2024-03-17T15:23:30;14.50;99.90
23562;DHT22;11959;49.418;8.728;2024-03-17T15:26:04;14.50;99.90
23562;DHT22;11959;49.418;8.728;2024-03-17T15:28:42;14.40;99.90
23562;DHT22;11959;49.418;8.728;2024-03-17T15:31:09;14.40;99.90
23562;DHT22;11959;49.418;8.728;2024-03-17T15:33:36;14.40;99.90
23562;DHT22;11959;49.418;8.728;2024-03-17T15:36:06;14.40;99.90
23562;DHT22;11959;49.418;8.728;2024-03-17T15:38:33;14.40;99.90
23562;DHT22;11959;49.418;8.728;2024-03-17T15:41:02;14.40;99.90
23562;DHT22;11959;49.418;8.728;2024-03-17T15:43:28;14.40;99.90
23562;DHT22;11959;49.418;8.728;2024-03-17T15:45:57;14.30;99.90
23562;DHT22;11959;49.418;8.728;2024-03-17T15:48:23;14.20;99.90
23562;DHT22;11959;49.418;8.728;2024-03-17T15:50:55;14.20;99.90
23562;DHT22;11959;49.418;8.728;2024-03-17T15:53:22;14.10;99.90
23562;DHT22;11959;49.418;8.728;2024-03-17T15:55:58;14.20;99.90
23562;DHT22;11959;49.418;8.728;2024-03-17T15:58:25;14.10;99.90
23562;DHT22;11959;49.418;8.728;2024-03-17T16:00:51;14.10;99.90
23562;DHT22;11959;49.418;8.728;2024-03-17T16:03:17;13.90;99.90
23562;DHT22;11959;49.418;8.728;2024-03-17T16:05:47;13.90;99.90
23562;DHT22;11959;49.418;8.728;2024-03-17T16:08:17;13.90;99.90